createdAt,value
2023-04-26T00:01:10.006Z,15.60
2023-04-26T00:03:37.912Z,15.60
2023-04-26T00:06:08.939Z,15.60
2023-04-26T00:08:36.174Z,15.80
2023-04-26T00:11:02.936Z,15.80
2023-04-26T00:13:29.676Z,15.70
2023-04-26T00:15:56.532Z,16.00
2023-04-26T00:18:23.714Z,16.20
2023-04-26T00:20:50.571Z,16.40
2023-04-26T00:23:17.516Z,16.50
2023-04-26T00:25:44.259Z,16.50
2023-04-26T00:28:11.322Z,16.50
2023-04-26T00:30:41.426Z,16.40
2023-04-26T00:33:08.179Z,16.50
2023-04-26T00:35:46.627Z,16.50
2023-04-26T00:38:13.357Z,16.50
2023-04-26T00:40:40.194Z,16.50
2023-04-26T00:43:07.105Z,16.50
2023-04-26T00:45:34.602Z,16.50
2023-04-26T00:48:01.931Z,16.60
2023-04-26T00:50:29.662Z,16.60
2023-04-26T00:52:57.737Z,16.60
2023-04-26T00:55:27.105Z,16.60
2023-04-26T00:57:55.383Z,16.50
2023-04-26T01:00:22.855Z,16.50
2023-04-26T01:02:49.794Z,16.40
2023-04-26T01:05:16.785Z,16.50
2023-04-26T01:07:43.666Z,16.50
2023-04-26T01:10:10.705Z,16.50
2023-04-26T01:12:38.702Z,16.50
2023-04-26T01:15:06.358Z,16.60
2023-04-26T01:17:33.892Z,16.70
2023-04-26T01:20:00.947Z,16.60
2023-04-26T01:22:28.738Z,16.40
2023-04-26T01:24:56.526Z,16.40
2023-04-26T01:27:23.404Z,16.50
2023-04-26T01:29:50.225Z,16.40
2023-04-26T01:32:17.060Z,16.60
2023-04-26T01:34:43.827Z,16.70
2023-04-26T01:37:10.788Z,16.60
2023-04-26T01:39:37.544Z,16.50
2023-04-26T01:42:04.908Z,16.50
2023-04-26T01:44:31.792Z,16.60
2023-04-26T01:46:58.551Z,16.60
2023-04-26T01:49:25.496Z,16.70
2023-04-26T01:51:52.269Z,16.60
2023-04-26T01:54:19.242Z,16.40
2023-04-26T01:56:46.008Z,16.40
2023-04-26T01:59:12.804Z,16.60
2023-04-26T02:01:41.412Z,16.60
2023-04-26T02:04:08.272Z,16.60
2023-04-26T02:06:35.051Z,16.50
2023-04-26T02:09:01.778Z,16.40
2023-04-26T02:11:28.583Z,16.50
2023-04-26T02:13:55.396Z,16.60
2023-04-26T02:16:22.448Z,16.60
2023-04-26T02:18:54.252Z,16.60
2023-04-26T02:21:22.081Z,16.50
2023-04-26T02:23:49.144Z,16.60
2023-04-26T02:26:16.119Z,16.50
2023-04-26T02:28:42.841Z,16.50
2023-04-26T02:31:09.989Z,16.60
2023-04-26T02:33:36.989Z,16.60
2023-04-26T02:36:05.618Z,16.60
2023-04-26T02:38:36.378Z,16.50
2023-04-26T02:41:04.325Z,16.60
2023-04-26T02:43:31.130Z,16.50
2023-04-26T02:46:01.456Z,16.60
2023-04-26T02:48:28.787Z,16.50
2023-04-26T02:50:55.704Z,16.50
2023-04-26T02:53:22.534Z,16.50
2023-04-26T02:55:49.277Z,16.50
2023-04-26T02:58:16.198Z,16.40
2023-04-26T03:00:46.773Z,16.40
2023-04-26T03:03:14.095Z,16.40
2023-04-26T03:05:41.774Z,16.50
2023-04-26T03:08:09.185Z,16.50
2023-04-26T03:10:36.345Z,16.40
2023-04-26T03:13:04.572Z,16.30
2023-04-26T03:15:31.420Z,16.40
2023-04-26T03:17:58.394Z,16.50
2023-04-26T03:20:25.765Z,16.60
2023-04-26T03:22:52.501Z,16.50
2023-04-26T03:25:19.702Z,16.40
2023-04-26T03:27:46.526Z,16.40
2023-04-26T03:30:13.556Z,16.40
2023-04-26T03:32:40.510Z,16.30
2023-04-26T03:35:07.405Z,16.30
2023-04-26T03:37:34.180Z,16.20
2023-04-26T03:40:01.315Z,16.20
2023-04-26T03:42:28.278Z,16.20
2023-04-26T03:44:55.012Z,16.20
2023-04-26T03:47:21.921Z,16.30
2023-04-26T03:49:48.656Z,16.20
2023-04-26T03:52:15.483Z,16.20
2023-04-26T03:54:42.457Z,16.30
2023-04-26T03:57:09.179Z,16.20
2023-04-26T03:59:35.961Z,16.20
2023-04-26T04:02:03.149Z,16.20
2023-04-26T04:04:30.312Z,16.20
2023-04-26T04:06:57.266Z,16.20
2023-04-26T04:09:24.229Z,16.20
2023-04-26T04:11:51.667Z,16.20
2023-04-26T04:14:18.409Z,16.20
2023-04-26T04:16:45.377Z,16.20
2023-04-26T04:19:12.114Z,16.10
2023-04-26T04:21:40.387Z,16.10
2023-04-26T04:24:07.160Z,16.10
2023-04-26T04:26:34.354Z,16.20
2023-04-26T04:29:08.786Z,16.20
2023-04-26T04:31:36.710Z,16.20
2023-04-26T04:34:03.489Z,16.20
2023-04-26T04:36:31.399Z,16.20
2023-04-26T04:38:58.278Z,16.20
2023-04-26T04:41:25.040Z,16.20
2023-04-26T04:43:51.812Z,16.20
2023-04-26T04:46:18.543Z,16.20
2023-04-26T04:48:45.351Z,16.10
2023-04-26T04:51:12.268Z,16.10
2023-04-26T04:53:38.960Z,16.20
2023-04-26T04:56:06.089Z,16.20
2023-04-26T04:58:33.004Z,16.20
2023-04-26T05:01:01.400Z,16.20
2023-04-26T05:03:28.469Z,16.20
2023-04-26T05:05:55.504Z,16.20
2023-04-26T05:08:22.439Z,16.20
2023-04-26T05:10:49.202Z,16.20
2023-04-26T05:13:16.179Z,16.10
2023-04-26T05:15:42.964Z,16.20
2023-04-26T05:18:10.151Z,16.20
2023-04-26T05:20:37.048Z,16.30
2023-04-26T05:23:03.964Z,16.30
2023-04-26T05:25:30.819Z,16.30
2023-04-26T05:27:57.666Z,16.20
2023-04-26T05:30:24.547Z,16.10
2023-04-26T05:32:51.387Z,16.10
2023-04-26T05:35:18.387Z,16.30
2023-04-26T05:37:45.144Z,16.40
2023-04-26T05:40:12.573Z,16.40
2023-04-26T05:42:39.560Z,16.30
2023-04-26T05:45:06.656Z,16.20
2023-04-26T05:47:33.544Z,16.20
2023-04-26T05:50:00.707Z,16.20
2023-04-26T05:52:27.384Z,16.30
2023-04-26T05:54:54.147Z,16.50
2023-04-26T05:57:21.056Z,16.50
2023-04-26T05:59:48.211Z,16.50
2023-04-26T06:02:15.139Z,16.50
2023-04-26T06:04:42.211Z,16.40
2023-04-26T06:07:09.844Z,16.50
2023-04-26T06:09:36.635Z,16.50
2023-04-26T06:12:04.028Z,16.50
2023-04-26T06:14:31.136Z,16.50
2023-04-26T06:16:58.274Z,16.50
2023-04-26T06:19:25.218Z,16.60
2023-04-26T06:21:55.591Z,16.60
2023-04-26T06:24:23.225Z,16.60
2023-04-26T06:26:49.992Z,16.60
2023-04-26T06:29:17.114Z,16.70
2023-04-26T06:31:43.841Z,16.70
2023-04-26T06:34:10.637Z,16.70
2023-04-26T06:36:37.365Z,16.70
2023-04-26T06:39:04.133Z,16.70
2023-04-26T06:41:31.403Z,16.70
2023-04-26T06:43:58.149Z,16.70
2023-04-26T06:46:24.994Z,16.70
2023-04-26T06:48:53.439Z,16.60
2023-04-26T06:51:20.332Z,16.70
2023-04-26T06:53:48.344Z,16.70
2023-04-26T06:56:15.561Z,16.80
2023-04-26T06:58:57.960Z,16.70
2023-04-26T07:01:24.935Z,16.70
2023-04-26T07:03:51.960Z,16.70
2023-04-26T07:06:18.886Z,16.80
2023-04-26T07:08:45.655Z,16.80
2023-04-26T07:11:12.971Z,16.80
2023-04-26T07:13:39.847Z,16.80
2023-04-26T07:16:06.757Z,16.80
2023-04-26T07:18:33.520Z,16.70
2023-04-26T07:21:00.518Z,16.70
2023-04-26T07:23:34.251Z,16.60
2023-04-26T07:26:04.548Z,16.50
2023-04-26T07:28:31.881Z,16.70
2023-04-26T07:30:59.207Z,16.10
2023-04-26T07:33:26.486Z,15.80
2023-04-26T07:35:53.922Z,15.60
2023-04-26T07:38:20.713Z,15.50
2023-04-26T07:40:47.430Z,15.60
2023-04-26T07:43:15.789Z,15.60
2023-04-26T07:45:42.748Z,15.40
2023-04-26T07:48:09.767Z,15.50
2023-04-26T07:50:36.795Z,15.50
2023-04-26T07:53:03.566Z,15.60
2023-04-26T07:55:30.533Z,15.60
2023-04-26T07:57:57.455Z,15.50
2023-04-26T08:00:24.427Z,15.60
2023-04-26T08:02:53.426Z,15.60
2023-04-26T08:05:20.630Z,15.70
2023-04-26T08:07:47.567Z,15.80
2023-04-26T08:10:14.316Z,16.10
2023-04-26T08:12:41.295Z,16.20
2023-04-26T08:15:08.344Z,16.00
2023-04-26T08:17:35.243Z,16.10
2023-04-26T08:20:02.136Z,16.00
2023-04-26T08:22:28.894Z,16.20
2023-04-26T08:24:55.871Z,16.20
2023-04-26T08:27:22.786Z,16.10
2023-04-26T08:29:49.688Z,16.00
2023-04-26T08:32:16.631Z,16.20
2023-04-26T08:34:43.847Z,16.60
2023-04-26T08:37:11.148Z,16.90
2023-04-26T08:39:37.999Z,16.80
2023-04-26T08:42:05.977Z,16.50
2023-04-26T08:44:34.694Z,16.60
2023-04-26T08:47:04.127Z,16.60
2023-04-26T08:49:41.523Z,16.60
2023-04-26T08:52:09.570Z,16.40
2023-04-26T08:54:37.065Z,16.80
2023-04-26T08:57:04.048Z,16.90
2023-04-26T08:59:33.626Z,17.30
2023-04-26T09:02:03.175Z,17.60
2023-04-26T09:04:30.359Z,17.80
2023-04-26T09:07:01.406Z,17.90
2023-04-26T09:09:29.727Z,17.60
2023-04-26T09:11:57.938Z,17.60
2023-04-26T09:14:24.671Z,17.80
2023-04-26T09:16:52.295Z,18.10
2023-04-26T09:19:34.329Z,18.10
2023-04-26T09:22:01.484Z,18.20
2023-04-26T09:24:28.349Z,18.20
2023-04-26T09:27:03.105Z,18.40
2023-04-26T09:29:29.836Z,18.40
2023-04-26T09:31:58.405Z,18.30
2023-04-26T09:34:25.356Z,18.00
2023-04-26T09:36:53.284Z,18.20
2023-04-26T09:39:34.185Z,18.40
2023-04-26T09:42:02.010Z,18.40
2023-04-26T09:44:30.061Z,18.40
2023-04-26T09:47:09.688Z,18.40
2023-04-26T09:49:46.000Z,18.40
2023-04-26T09:52:12.828Z,18.20
2023-04-26T09:54:41.426Z,17.90
2023-04-26T09:57:08.276Z,18.10
2023-04-26T09:59:42.077Z,18.10
2023-04-26T10:02:16.396Z,18.20
2023-04-26T10:04:44.976Z,18.20
2023-04-26T10:07:12.776Z,18.10
2023-04-26T10:09:39.700Z,18.30
2023-04-26T10:12:07.153Z,18.10
2023-04-26T10:14:34.806Z,18.20
2023-04-26T10:17:03.213Z,18.20
2023-04-26T10:19:30.541Z,18.10
2023-04-26T10:22:00.152Z,18.20
2023-04-26T10:24:27.383Z,18.10
2023-04-26T10:26:56.934Z,18.10
2023-04-26T10:29:24.839Z,18.20
2023-04-26T10:32:05.377Z,18.10
2023-04-26T10:34:37.117Z,18.30
2023-04-26T10:37:22.073Z,18.20
2023-04-26T10:39:48.997Z,18.40
2023-04-26T10:42:24.137Z,18.40
2023-04-26T10:44:52.725Z,18.40
2023-04-26T10:47:24.011Z,18.50
2023-04-26T10:49:51.614Z,18.50
2023-04-26T10:52:20.514Z,18.40
2023-04-26T10:54:55.263Z,18.20
2023-04-26T10:57:22.958Z,18.30
2023-04-26T11:00:14.786Z,18.30
2023-04-26T11:02:45.071Z,18.20
2023-04-26T11:05:12.286Z,18.20
2023-04-26T11:07:39.306Z,18.10
2023-04-26T11:10:12.528Z,18.20
2023-04-26T11:12:42.101Z,18.10
2023-04-26T11:15:09.037Z,18.20
2023-04-26T11:17:37.336Z,18.20
2023-04-26T11:20:11.238Z,18.10
2023-04-26T11:22:40.077Z,18.20
2023-04-26T11:25:07.002Z,18.20
2023-04-26T11:27:33.974Z,18.20
2023-04-26T11:30:03.056Z,18.20
2023-04-26T11:32:29.900Z,18.20
2023-04-26T11:35:00.168Z,18.20
2023-04-26T11:37:27.238Z,18.20
2023-04-26T11:39:54.021Z,18.20
2023-04-26T11:42:25.020Z,18.10
2023-04-26T11:44:52.601Z,18.20
2023-04-26T11:47:19.923Z,18.20
2023-04-26T11:49:47.325Z,18.10
2023-04-26T11:52:14.203Z,18.20
2023-04-26T11:54:40.965Z,18.20
2023-04-26T11:57:18.342Z,18.20
2023-04-26T11:59:45.908Z,18.30
2023-04-26T12:02:12.813Z,18.30
2023-04-26T12:04:41.167Z,18.30
2023-04-26T12:07:08.626Z,18.20
2023-04-26T12:09:36.743Z,18.20
2023-04-26T12:12:07.503Z,18.30
2023-04-26T12:14:34.799Z,18.50
2023-04-26T12:17:03.248Z,18.60
2023-04-26T12:19:49.909Z,18.50
2023-04-26T12:22:20.488Z,18.40
2023-04-26T12:24:48.193Z,18.40
2023-04-26T12:27:20.720Z,18.40
2023-04-26T12:29:47.428Z,18.40
2023-04-26T12:32:14.115Z,18.30
2023-04-26T12:34:40.991Z,18.40
2023-04-26T12:37:08.053Z,18.40
2023-04-26T12:39:34.793Z,18.40
2023-04-26T12:42:01.553Z,18.40
2023-04-26T12:44:28.390Z,18.40
2023-04-26T12:46:55.134Z,18.50
2023-04-26T12:49:21.964Z,18.50
2023-04-26T12:51:48.743Z,18.60
2023-04-26T12:54:15.506Z,18.60
2023-04-26T12:56:44.524Z,18.70
2023-04-26T12:59:11.466Z,18.80
2023-04-26T13:01:38.261Z,18.80
2023-04-26T13:04:06.263Z,18.60
2023-04-26T13:06:33.755Z,18.50
2023-04-26T13:09:00.542Z,18.40
2023-04-26T13:11:27.323Z,18.40
2023-04-26T13:13:54.065Z,18.40
2023-04-26T13:16:20.890Z,18.30
2023-04-26T13:18:47.780Z,18.50
2023-04-26T13:21:14.471Z,18.60
2023-04-26T13:23:41.334Z,18.50
2023-04-26T13:26:08.267Z,18.40
2023-04-26T13:28:36.205Z,18.40
2023-04-26T13:31:03.292Z,18.50
2023-04-26T13:33:30.610Z,18.60
2023-04-26T13:35:57.546Z,18.70
2023-04-26T13:38:25.363Z,18.80
2023-04-26T13:40:54.018Z,18.80
2023-04-26T13:43:20.937Z,18.50
2023-04-26T13:45:47.941Z,18.50
2023-04-26T13:48:15.123Z,18.50
2023-04-26T13:50:42.314Z,18.60
2023-04-26T13:53:09.028Z,18.60
2023-04-26T13:55:35.952Z,18.50
2023-04-26T13:58:02.762Z,18.50
2023-04-26T14:00:29.581Z,18.60
2023-04-26T14:02:57.055Z,18.60
2023-04-26T14:05:24.045Z,18.70
2023-04-26T14:07:52.426Z,18.50
2023-04-26T14:10:21.145Z,18.50
2023-04-26T14:12:48.002Z,18.50
2023-04-26T14:15:15.215Z,18.60
2023-04-26T14:17:47.121Z,18.60
2023-04-26T14:20:14.030Z,18.60
2023-04-26T14:22:41.113Z,18.60
2023-04-26T14:25:08.276Z,18.60
2023-04-26T14:27:35.197Z,18.60
2023-04-26T14:30:01.947Z,18.60
2023-04-26T14:32:28.902Z,18.70
2023-04-26T14:34:55.664Z,18.60
2023-04-26T14:37:23.048Z,18.60
2023-04-26T14:39:50.287Z,18.50
2023-04-26T14:42:17.021Z,18.50
2023-04-26T14:44:45.687Z,18.40
2023-04-26T14:47:12.649Z,18.40
2023-04-26T14:49:39.372Z,18.30
2023-04-26T14:52:06.070Z,18.30
2023-04-26T14:54:37.176Z,18.40
2023-04-26T14:57:03.989Z,18.50
2023-04-26T14:59:30.730Z,18.40
2023-04-26T15:01:57.732Z,18.40
2023-04-26T15:04:24.781Z,18.50
2023-04-26T15:06:51.753Z,18.40
2023-04-26T15:09:18.656Z,18.40
2023-04-26T15:11:45.494Z,18.50
2023-04-26T15:14:12.275Z,18.50
2023-04-26T15:16:39.131Z,18.50
2023-04-26T15:19:05.859Z,18.50
2023-04-26T15:21:34.384Z,18.50
2023-04-26T15:24:01.141Z,18.40
2023-04-26T15:26:31.003Z,18.40
2023-04-26T15:28:57.776Z,18.40
2023-04-26T15:31:24.565Z,18.40
2023-04-26T15:33:51.575Z,18.40
2023-04-26T15:36:20.324Z,18.50
2023-04-26T15:38:48.537Z,18.60
2023-04-26T15:41:15.339Z,19.00
2023-04-26T15:43:42.059Z,19.00
2023-04-26T15:46:08.929Z,19.00
2023-04-26T15:48:36.506Z,18.70
2023-04-26T15:51:04.837Z,18.70
2023-04-26T15:53:31.703Z,18.50
2023-04-26T15:55:58.563Z,18.50
2023-04-26T15:58:25.365Z,18.60
2023-04-26T16:00:52.168Z,18.50
2023-04-26T16:03:19.317Z,18.40
2023-04-26T16:05:46.356Z,18.40
2023-04-26T16:08:13.953Z,18.50
2023-04-26T16:10:41.714Z,18.80
2023-04-26T16:13:08.413Z,18.70
2023-04-26T16:15:35.232Z,18.50
2023-04-26T16:18:02.049Z,18.50
2023-04-26T16:20:28.818Z,18.50
2023-04-26T16:22:56.341Z,18.40
2023-04-26T16:25:23.164Z,18.70
2023-04-26T16:27:49.896Z,18.90
2023-04-26T16:30:17.819Z,19.00
2023-04-26T16:32:44.608Z,18.70
2023-04-26T16:35:11.341Z,18.80
2023-04-26T16:37:40.073Z,18.80
2023-04-26T16:40:07.922Z,18.80
2023-04-26T16:42:34.766Z,18.70
2023-04-26T16:45:01.553Z,18.60
2023-04-26T16:47:28.332Z,18.80
2023-04-26T16:49:55.062Z,18.90
2023-04-26T16:52:22.077Z,19.00
2023-04-26T16:54:49.230Z,19.00
2023-04-26T16:57:16.617Z,18.90
2023-04-26T16:59:43.387Z,18.90
2023-04-26T17:02:10.250Z,18.80
2023-04-26T17:04:37.243Z,18.80
2023-04-26T17:07:04.630Z,18.60
2023-04-26T17:09:31.487Z,18.40
2023-04-26T17:11:58.272Z,18.30
2023-04-26T17:14:25.191Z,18.20
2023-04-26T17:16:51.911Z,18.10
2023-04-26T17:19:18.640Z,18.10
2023-04-26T17:21:45.486Z,18.00
2023-04-26T17:24:12.254Z,18.00
2023-04-26T17:26:39.021Z,18.00
2023-04-26T17:29:05.993Z,17.90
2023-04-26T17:31:32.731Z,17.90
2023-04-26T17:33:59.465Z,17.90
2023-04-26T17:36:26.716Z,18.00
2023-04-26T17:38:53.412Z,17.90
2023-04-26T17:41:22.462Z,18.00
2023-04-26T17:43:52.661Z,17.90
2023-04-26T17:46:20.047Z,17.90
2023-04-26T17:48:47.737Z,17.90
2023-04-26T17:51:15.620Z,17.90
2023-04-26T17:53:43.394Z,17.90
2023-04-26T17:56:10.905Z,17.90
2023-04-26T17:58:37.836Z,17.90
2023-04-26T18:01:04.789Z,17.90
2023-04-26T18:03:31.884Z,17.90
2023-04-26T18:05:59.021Z,17.90
2023-04-26T18:08:25.943Z,17.90
2023-04-26T18:10:54.064Z,17.90
2023-04-26T18:13:21.301Z,17.80
2023-04-26T18:15:48.340Z,17.80
2023-04-26T18:18:15.096Z,17.80
2023-04-26T18:20:41.852Z,17.80
2023-04-26T18:23:08.586Z,17.80
2023-04-26T18:25:35.312Z,17.70
2023-04-26T18:28:02.119Z,17.70
2023-04-26T18:30:28.872Z,17.70
2023-04-26T18:32:55.594Z,17.70
2023-04-26T18:35:22.383Z,17.70
2023-04-26T18:37:49.151Z,17.70
2023-04-26T18:40:15.877Z,17.70
2023-04-26T18:42:45.059Z,17.70
2023-04-26T18:45:12.240Z,17.70
2023-04-26T18:47:39.105Z,17.70
2023-04-26T18:50:06.296Z,17.70
2023-04-26T18:52:34.161Z,17.70
2023-04-26T18:55:01.138Z,17.70
2023-04-26T18:57:28.089Z,17.70
2023-04-26T18:59:57.280Z,17.70
2023-04-26T19:02:24.132Z,17.70
2023-04-26T19:04:51.122Z,17.70
2023-04-26T19:07:18.002Z,17.70
2023-04-26T19:09:53.708Z,17.70
2023-04-26T19:12:21.725Z,17.70
2023-04-26T19:14:48.457Z,17.70
2023-04-26T19:17:15.189Z,17.60
2023-04-26T19:19:42.106Z,17.60
2023-04-26T19:22:08.841Z,17.70
2023-04-26T19:24:35.909Z,17.60
2023-04-26T19:27:02.902Z,17.60
2023-04-26T19:29:29.638Z,17.60
2023-04-26T19:31:56.532Z,17.70
2023-04-26T19:34:23.494Z,17.60
2023-04-26T19:36:50.193Z,17.60
2023-04-26T19:39:16.917Z,17.60
2023-04-26T19:41:43.710Z,17.60
2023-04-26T19:44:10.555Z,17.60
2023-04-26T19:46:37.861Z,17.60
2023-04-26T19:49:04.845Z,17.60
2023-04-26T19:51:32.247Z,17.60
2023-04-26T19:53:58.976Z,17.60
2023-04-26T19:56:26.083Z,17.60
2023-04-26T19:58:53.012Z,17.60
2023-04-26T20:01:19.831Z,17.60
2023-04-26T20:03:46.843Z,17.70
2023-04-26T20:06:14.257Z,17.70
2023-04-26T20:08:41.307Z,17.60
2023-04-26T20:11:14.697Z,17.50
2023-04-26T20:13:42.570Z,17.50
2023-04-26T20:16:09.701Z,17.50
2023-04-26T20:18:37.027Z,17.50
2023-04-26T20:21:04.533Z,17.40
2023-04-26T20:23:31.681Z,17.30
2023-04-26T20:25:58.662Z,17.30
2023-04-26T20:28:25.941Z,17.30
2023-04-26T20:30:53.114Z,17.30
2023-04-26T20:33:19.967Z,17.20
2023-04-26T20:35:46.967Z,17.20
2023-04-26T20:38:14.470Z,17.20
2023-04-26T20:40:41.281Z,17.30
2023-04-26T20:43:08.073Z,17.20
2023-04-26T20:45:35.163Z,17.20
2023-04-26T20:48:02.104Z,17.20
2023-04-26T20:50:29.071Z,17.20
2023-04-26T20:52:56.361Z,17.20
2023-04-26T20:55:23.520Z,17.20
2023-04-26T20:57:50.400Z,17.30
2023-04-26T21:00:17.394Z,17.30
2023-04-26T21:02:44.429Z,17.20
2023-04-26T21:05:11.332Z,17.20
2023-04-26T21:07:38.256Z,17.20
2023-04-26T21:10:05.443Z,17.10
2023-04-26T21:12:32.255Z,17.20
2023-04-26T21:14:59.001Z,17.10
2023-04-26T21:17:26.075Z,17.00
2023-04-26T21:19:52.883Z,17.20
2023-04-26T21:22:19.634Z,17.20
2023-04-26T21:24:46.468Z,17.30
2023-04-26T21:27:13.266Z,17.30
2023-04-26T21:29:40.030Z,17.30
2023-04-26T21:32:06.818Z,17.30
2023-04-26T21:34:33.545Z,17.30
2023-04-26T21:37:00.409Z,17.30
2023-04-26T21:39:27.271Z,17.30
2023-04-26T21:41:53.991Z,17.20
2023-04-26T21:44:20.803Z,17.20
2023-04-26T21:46:47.842Z,17.10
2023-04-26T21:49:14.633Z,17.10
2023-04-26T21:51:41.460Z,17.20
2023-04-26T21:54:08.311Z,17.10
2023-04-26T21:56:34.983Z,17.10
2023-04-26T21:59:02.578Z,16.90
2023-04-26T22:01:30.194Z,17.00
2023-04-26T22:03:57.229Z,17.00
2023-04-26T22:06:24.248Z,17.00
2023-04-26T22:08:51.262Z,17.10
2023-04-26T22:11:18.040Z,17.10
2023-04-26T22:13:44.869Z,17.00
2023-04-26T22:16:11.823Z,17.00
2023-04-26T22:18:38.729Z,17.10
2023-04-26T22:21:05.601Z,17.10
2023-04-26T22:23:32.411Z,17.00
2023-04-26T22:26:00.609Z,16.90
2023-04-26T22:28:27.416Z,17.00
2023-04-26T22:30:54.301Z,16.90
2023-04-26T22:33:21.541Z,16.80
2023-04-26T22:35:48.231Z,16.60
2023-04-26T22:38:15.082Z,16.50
2023-04-26T22:40:42.088Z,16.40
2023-04-26T22:43:08.870Z,16.40
2023-04-26T22:45:35.827Z,16.30
2023-04-26T22:48:02.703Z,16.40
2023-04-26T22:50:29.471Z,16.50
2023-04-26T22:52:56.610Z,16.60
2023-04-26T22:55:23.494Z,16.60
2023-04-26T22:57:50.505Z,16.60
2023-04-26T23:00:17.741Z,16.60
2023-04-26T23:02:44.803Z,16.50
2023-04-26T23:05:12.010Z,16.50
2023-04-26T23:07:39.645Z,16.40
2023-04-26T23:10:06.907Z,16.40
2023-04-26T23:12:33.742Z,16.30
2023-04-26T23:15:00.750Z,16.40
2023-04-26T23:17:27.674Z,16.50
2023-04-26T23:19:54.655Z,16.40
2023-04-26T23:22:21.472Z,16.40
2023-04-26T23:24:48.333Z,16.40
2023-04-26T23:27:15.070Z,16.40
2023-04-26T23:29:42.027Z,16.40
2023-04-26T23:32:08.899Z,16.40
2023-04-26T23:34:35.893Z,16.40
2023-04-26T23:37:06.967Z,16.40
2023-04-26T23:39:35.272Z,16.30
2023-04-26T23:42:02.503Z,16.20
2023-04-26T23:44:29.435Z,16.30
2023-04-26T23:46:56.380Z,16.20
2023-04-26T23:49:23.371Z,16.30
2023-04-26T23:51:50.127Z,16.30
2023-04-26T23:54:17.066Z,16.20
2023-04-26T23:56:43.952Z,16.20
2023-04-26T23:59:10.978Z,16.30
